Time;durP1;ratioP1;P1;durP2;ratioP2;P2;SDS_P1;SDS_P2;PMS_P1;PMS_P2;Temp;Humidity;BMP_temperature;BMP_pressure;BME280_temperature;BME280_humidity;BME280_pressure;Samples;Min_cycle;Max_cycle;Signal;HPM_P1;HPM_P2
2022/12/09 00:00:55;;;;;;;;;;;;;;;10.02;96.86;99922.38;5060010;28;19943;-67
2022/12/09 00:03:20;;;;;;;;;;;;;;;10.20;96.05;99923.19;5062239;28;19924;-71
2022/12/09 00:05:45;;;;;;;;;;;;;;;10.05;96.27;99924.72;5061175;28;19920;-74
2022/12/09 00:08:11;;;;;;;;;;;;;;;10.09;96.23;99936.66;5061538;28;19916;-67
2022/12/09 00:10:36;;;;;;;;;;;;;;;10.21;95.67;99935.44;5060336;28;19921;-67
2022/12/09 00:13:01;;;;;;;;;;;;;;;10.30;95.69;99939.81;5061495;28;19996;-67
2022/12/09 00:15:27;;;;;;;;;;;;;;;10.01;96.04;99940.06;5060157;28;20203;-74
2022/12/09 00:17:52;;;;;;;;;;;;;;;10.06;96.26;99932.50;5062530;28;19935;-69
2022/12/09 00:20:17;;;;;;;;;;;;;;;10.02;96.98;99932.94;5059868;28;20146;-74
2022/12/09 00:22:42;;;;;;;;;;;;;;;9.91;96.37;99929.56;5061679;28;19924;-74
2022/12/09 00:25:08;;;;;;;;;;;;;;;10.16;96.80;99927.94;5059966;28;19927;-74
2022/12/09 00:27:33;;;;;;;;;;;;;;;9.95;96.96;99923.97;5061732;28;19924;-67
2022/12/09 00:29:58;;;;;;;;;;;;;;;9.80;97.72;99937.75;5061222;28;19928;-73
2022/12/09 00:32:23;;;;;;;;;;;;;;;9.97;97.04;99936.06;5060720;28;19959;-74
2022/12/09 00:34:49;;;;;;;;;;;;;;;9.83;97.37;99939.25;5061259;28;19916;-74
2022/12/09 00:37:14;;;;;;;;;;;;;;;9.95;96.78;99942.47;5060208;28;19920;-68
2022/12/09 00:39:39;;;;;;;;;;;;;;;9.67;98.56;99949.69;5060757;28;19992;-73
2022/12/09 00:42:05;;;;;;;;;;;;;;;9.89;98.11;99947.41;5060212;28;19924;-67
2022/12/09 00:44:30;;;;;;;;;;;;;;;10.00;97.99;99946.34;5077149;28;19923;-74
2022/12/09 00:46:55;;;;;;;;;;;;;;;10.11;96.80;99945.25;5060358;28;20123;-68
2022/12/09 00:49:20;;;;;;;;;;;;;;;10.13;96.13;99944.13;5062101;28;19962;-68
2022/12/09 00:51:46;;;;;;;;;;;;;;;10.14;96.37;99943.13;5059423;28;20202;-67
2022/12/09 00:54:11;;;;;;;;;;;;;;;10.39;95.50;99952.09;5061787;28;19924;-74
2022/12/09 00:56:37;;;;;;;;;;;;;;;10.46;95.12;99939.94;5059197;28;19950;-74
2022/12/09 00:59:02;;;;;;;;;;;;;;;10.46;94.62;99933.81;5061733;28;19928;-67
2022/12/09 01:01:27;;;;;;;;;;;;;;;10.34;95.37;99935.84;5060214;28;19924;-71
2022/12/09 01:03:53;;;;;;;;;;;;;;;10.45;94.70;99930.34;5061381;28;19931;-74
2022/12/09 01:06:19;;;;;;;;;;;;;;;10.47;94.44;99924.88;5059820;28;19958;-74
2022/12/09 01:08:45;;;;;;;;;;;;;;;10.38;94.86;99916.03;5059893;28;20185;-68
2022/12/09 01:11:13;;;;;;;;;;;;;;;10.41;94.61;99917.56;5060841;28;19929;-74
2022/12/09 01:13:38;;;;;;;;;;;;;;;10.29;95.46;99926.72;5059226;28;20103;-74
2022/12/09 01:16:11;;;;;;;;;;;;;;;10.41;94.53;99925.50;5061372;28;19963;-74
2022/12/09 01:18:36;;;;;;;;;;;;;;;10.45;94.71;99930.34;5060635;28;19917;-75
2022/12/09 01:21:02;;;;;;;;;;;;;;;10.46;94.92;99932.00;5060667;28;20104;-74
2022/12/09 01:23:27;;;;;;;;;;;;;;;10.40;94.00;99926.47;5060029;28;19913;-67
2022/12/09 01:25:52;;;;;;;;;;;;;;;10.41;95.25;99930.81;5059882;28;19958;-74
2022/12/09 01:28:17;;;;;;;;;;;;;;;10.61;93.83;99934.88;5059676;28;19939;-73
2022/12/09 01:30:43;;;;;;;;;;;;;;;10.47;94.85;99938.94;5060228;28;19939;-74
2022/12/09 01:33:09;;;;;;;;;;;;;;;10.50;94.34;99933.34;5059776;28;20138;-68
2022/12/09 01:35:34;;;;;;;;;;;;;;;10.64;94.47;99929.28;5060604;28;19921;-74
2022/12/09 01:37:59;;;;;;;;;;;;;;;10.66;93.48;99931.75;5060154;28;21434;-74
2022/12/09 01:40:25;;;;;;;;;;;;;;;10.66;93.52;99927.28;5060647;28;19932;-68
2022/12/09 01:42:50;;;;;;;;;;;;;;;10.64;93.17;99925.78;5060719;28;19925;-67
2022/12/09 01:45:18;;;;;;;;;;;;;;;10.61;93.51;99920.81;5059226;28;20131;-74
2022/12/09 01:47:43;;;;;;;;;;;;;;;10.75;92.94;99926.34;5060263;28;19983;-74
2022/12/09 01:50:09;;;;;;;;;;;;;;;10.72;93.01;99934.59;5059231;28;19987;-74
2022/12/09 01:52:34;;;;;;;;;;;;;;;10.88;92.94;99931.19;5061444;28;19917;-67
2022/12/09 01:55:00;;;;;;;;;;;;;;;10.95;92.70;99921.63;5058621;28;19913;-67
2022/12/09 01:57:25;;;;;;;;;;;;;;;10.98;92.00;99926.59;5060238;28;19921;-67
2022/12/09 01:59:51;;;;;;;;;;;;;;;11.08;92.06;99915.88;5060060;28;20004;-74
2022/12/09 02:02:18;;;;;;;;;;;;;;;10.95;91.99;99921.63;5059250;28;19927;-67
2022/12/09 02:04:46;;;;;;;;;;;;;;;11.05;92.06;99926.78;5060609;28;19925;-68
2022/12/09 02:07:11;;;;;;;;;;;;;;;11.11;91.75;99926.97;5059399;28;20084;-67
2022/12/09 02:09:37;;;;;;;;;;;;;;;11.07;91.33;99923.00;5060126;28;19963;-74
2022/12/09 02:12:09;;;;;;;;;;;;;;;11.00;91.96;99907.91;5059369;28;20019;-74
2022/12/09 02:14:39;;;;;;;;;;;;;;;11.08;91.78;99892.03;5059009;28;20107;-74
2022/12/09 02:17:04;;;;;;;;;;;;;;;11.05;91.10;99890.53;5059955;28;20203;-73
2022/12/09 02:19:45;;;;;;;;;;;;;;;11.01;92.62;99902.44;5059055;28;19963;-67
2022/12/09 02:22:12;;;;;;;;;;;;;;;11.09;91.43;99905.13;5058226;28;20119;-75
2022/12/09 02:24:42;;;;;;;;;;;;;;;11.11;91.88;99900.47;5060462;28;19917;-74
2022/12/09 02:27:16;;;;;;;;;;;;;;;11.12;92.03;99902.13;5059572;28;19921;-74
2022/12/09 02:29:52;;;;;;;;;;;;;;;11.14;91.69;99905.47;5060951;28;20117;-69
2022/12/09 02:32:30;;;;;;;;;;;;;;;11.22;91.85;99895.88;5061663;28;19921;-74
2022/12/09 02:35:24;;;;;;;;;;;;;;;11.14;91.93;99902.81;5061114;28;19955;-74
2022/12/09 02:37:56;;;;;;;;;;;;;;;11.18;91.66;99913.91;5054519;28;19928;-67
2022/12/09 02:40:29;;;;;;;;;;;;;;;11.19;91.54;99913.75;5057263;28;19943;-67
2022/12/09 02:42:55;;;;;;;;;;;;;;;11.10;91.98;99919.19;5064275;28;19925;-74
2022/12/09 02:45:21;;;;;;;;;;;;;;;11.14;91.75;99910.75;5062626;28;20161;-68
2022/12/09 02:47:48;;;;;;;;;;;;;;;11.24;90.94;99915.09;5063190;28;19953;-74
2022/12/09 02:50:15;;;;;;;;;;;;;;;11.15;91.73;99909.75;5062536;28;19935;-74
2022/12/09 02:52:42;;;;;;;;;;;;;;;11.09;92.20;99905.13;5063132;28;19944;-68
2022/12/09 02:55:08;;;;;;;;;;;;;;;10.96;92.74;99914.50;5064033;28;19932;-74
2022/12/09 02:57:34;;;;;;;;;;;;;;;11.12;92.04;99914.56;5062725;28;19983;-68
2022/12/09 03:00:00;;;;;;;;;;;;;;;11.21;91.76;99910.94;5064453;28;19931;-74
2022/12/09 03:02:30;;;;;;;;;;;;;;;11.25;91.30;99919.41;5062687;28;20022;-74
2022/12/09 03:05:01;;;;;;;;;;;;;;;11.27;91.41;99922.72;5061611;28;19925;-68
2022/12/09 03:07:31;;;;;;;;;;;;;;;11.28;91.32;99913.78;5063262;28;19955;-74
2022/12/09 03:10:07;;;;;;;;;;;;;;;11.30;90.91;99920.56;5062306;28;21354;-74
2022/12/09 03:12:33;;;;;;;;;;;;;;;11.32;90.53;99917.75;5061766;28;19921;-67
2022/12/09 03:14:59;;;;;;;;;;;;;;;11.28;90.94;99911.94;5063894;28;19916;-72
2022/12/09 03:17:33;;;;;;;;;;;;;;;11.24;91.50;99900.00;5062716;28;19921;-74
2022/12/09 03:20:19;;;;;;;;;;;;;;;11.23;91.64;99901.00;5062077;28;19920;-74
2022/12/09 03:22:46;;;;;;;;;;;;;;;11.25;91.29;99904.31;5060172;28;19920;-74
2022/12/09 03:25:21;;;;;;;;;;;;;;;11.30;91.33;99925.88;5061719;28;19927;-67
2022/12/09 03:27:49;;;;;;;;;;;;;;;11.29;92.14;99924.22;5061742;28;20282;-74
2022/12/09 03:30:15;;;;;;;;;;;;;;;11.33;91.37;99922.06;5060935;28;19995;-74
2022/12/09 03:32:42;;;;;;;;;;;;;;;11.34;91.23;99931.69;5063338;28;19955;-74
2022/12/09 03:35:09;;;;;;;;;;;;;;;11.36;91.75;99942.94;5061724;28;19927;-67
2022/12/09 03:37:37;;;;;;;;;;;;;;;11.18;92.35;99943.06;5062815;28;19917;-74
2022/12/09 03:40:03;;;;;;;;;;;;;;;11.27;92.54;99939.44;5061226;28;19932;-74
2022/12/09 03:42:38;;;;;;;;;;;;;;;11.27;92.24;99942.09;5060873;28;19925;-74
2022/12/09 03:45:06;;;;;;;;;;;;;;;11.29;92.41;99947.25;5061749;28;19929;-68
2022/12/09 03:47:32;;;;;;;;;;;;;;;11.29;92.02;99944.59;5061104;28;20148;-74
2022/12/09 03:49:57;;;;;;;;;;;;;;;11.35;91.80;99944.78;5063131;28;19960;-74
2022/12/09 03:52:30;;;;;;;;;;;;;;;11.35;92.04;99942.13;5061836;28;20080;-74
2022/12/09 03:55:22;;;;;;;;;;;;;;;11.39;91.57;99938.16;5061138;28;19924;-74
2022/12/09 03:57:50;;;;;;;;;;;;;;;11.29;92.09;99956.03;5059691;28;20180;-71
2022/12/09 04:00:17;;;;;;;;;;;;;;;11.35;91.93;99947.41;5060340;28;19921;-67
2022/12/09 04:02:42;;;;;;;;;;;;;;;11.32;91.91;99946.91;5061863;28;19929;-74
2022/12/09 04:05:07;;;;;;;;;;;;;;;11.19;92.72;99947.38;5060621;28;19996;-68
2022/12/09 04:07:33;;;;;;;;;;;;;;;11.30;93.26;99943.59;5062687;28;19925;-74
2022/12/09 04:09:58;;;;;;;;;;;;;;;11.30;92.49;99947.06;5060185;28;19956;-74
2022/12/09 04:12:23;;;;;;;;;;;;;;;11.19;93.38;99942.06;5062270;28;20192;-68
2022/12/09 04:14:49;;;;;;;;;;;;;;;11.19;92.65;99929.66;5061749;28;19917;-74
2022/12/09 04:17:14;;;;;;;;;;;;;;;11.30;92.94;99927.69;5061429;28;19959;-68
2022/12/09 04:19:39;;;;;;;;;;;;;;;11.31;92.08;99927.53;5061368;28;19917;-67
2022/12/09 04:22:05;;;;;;;;;;;;;;;11.09;93.57;99934.25;5061620;28;19920;-74
2022/12/09 04:24:30;;;;;;;;;;;;;;;11.26;93.04;99931.66;5061113;28;19924;-68
2022/12/09 04:26:55;;;;;;;;;;;;;;;11.33;92.82;99927.38;5061336;28;19979;-67
2022/12/09 04:29:20;;;;;;;;;;;;;;;11.37;92.32;99934.00;5060977;28;20075;-74
2022/12/09 04:31:46;;;;;;;;;;;;;;;11.19;93.07;99929.66;5060645;28;20099;-74
2022/12/09 04:34:11;;;;;;;;;;;;;;;11.09;92.85;99938.72;5062815;28;19924;-73
2022/12/09 04:36:37;;;;;;;;;;;;;;;11.15;93.33;99941.56;5060572;28;20748;-74
2022/12/09 04:39:02;;;;;;;;;;;;;;;11.12;93.02;99931.28;5062127;28;19993;-74
2022/12/09 04:41:27;;;;;;;;;;;;;;;10.99;94.00;99928.25;5060637;28;19921;-67
2022/12/09 04:43:53;;;;;;;;;;;;;;;11.02;93.63;99922.66;5061387;28;19938;-68
2022/12/09 04:46:18;;;;;;;;;;;;;;;11.14;92.97;99917.88;5063225;28;19920;-68
2022/12/09 04:48:43;;;;;;;;;;;;;;;11.18;93.28;99914.75;5061284;28;19939;-68
2022/12/09 04:51:10;;;;;;;;;;;;;;;11.25;92.49;99914.09;5060077;28;19920;-67
2022/12/09 04:53:36;;;;;;;;;;;;;;;11.23;92.31;99922.22;5059133;28;19923;-67
2022/12/09 04:56:02;;;;;;;;;;;;;;;11.21;92.50;99913.59;5060296;28;20222;-68
2022/12/09 04:58:28;;;;;;;;;;;;;;;11.24;92.18;99923.88;5060168;28;19917;-68
2022/12/09 05:00:53;;;;;;;;;;;;;;;11.30;92.02;99923.22;5060858;28;19928;-67
2022/12/09 05:03:18;;;;;;;;;;;;;;;11.30;92.81;99928.53;5060291;28;19991;-67
2022/12/09 05:05:43;;;;;;;;;;;;;;;11.31;92.35;99927.53;5061178;28;19927;-74
2022/12/09 05:08:09;;;;;;;;;;;;;;;11.33;92.48;99928.19;5060233;28;19929;-68
2022/12/09 05:10:34;;;;;;;;;;;;;;;11.31;91.95;99938.13;5061414;28;19920;-74
2022/12/09 05:13:01;;;;;;;;;;;;;;;11.06;92.75;99944.34;5057912;28;20779;-68
2022/12/09 05:15:27;;;;;;;;;;;;;;;11.11;93.20;99944.69;5061159;28;19916;-67
2022/12/09 05:17:52;;;;;;;;;;;;;;;10.92;93.21;99940.50;5060082;28;19917;-74
2022/12/09 05:20:18;;;;;;;;;;;;;;;11.06;93.55;99942.53;5060890;28;19944;-74
2022/12/09 05:22:43;;;;;;;;;;;;;;;10.99;92.95;99941.50;5060080;28;20210;-68
2022/12/09 05:25:09;;;;;;;;;;;;;;;10.78;93.81;99951.69;5059802;28;19924;-67
2022/12/09 05:27:34;;;;;;;;;;;;;;;10.78;94.03;99954.34;5061370;28;20222;-68
2022/12/09 05:29:59;;;;;;;;;;;;;;;10.72;94.53;99960.25;5059999;28;19927;-68
2022/12/09 05:32:27;;;;;;;;;;;;;;;10.77;95.04;99956.16;5060943;28;19924;-74
2022/12/09 05:34:53;;;;;;;;;;;;;;;10.80;93.45;99949.72;5061175;28;19925;-74
2022/12/09 05:37:18;;;;;;;;;;;;;;;10.59;94.85;99952.75;5061907;28;19980;-70
2022/12/09 05:39:44;;;;;;;;;;;;;;;10.51;95.57;99952.69;5061960;28;19921;-74
2022/12/09 05:42:09;;;;;;;;;;;;;;;10.47;95.85;99951.34;5062544;28;20096;-74
2022/12/09 05:44:34;;;;;;;;;;;;;;;10.49;96.51;99947.56;5063006;28;20189;-74
2022/12/09 05:46:59;;;;;;;;;;;;;;;10.67;95.20;99952.78;5062743;28;19913;-74
2022/12/09 05:49:25;;;;;;;;;;;;;;;10.83;94.86;99949.38;5062912;28;20254;-68
2022/12/09 05:51:50;;;;;;;;;;;;;;;10.74;94.60;99955.63;5062837;28;19920;-67
2022/12/09 05:54:15;;;;;;;;;;;;;;;10.66;94.62;99955.59;5062654;28;19955;-74
2022/12/09 05:56:41;;;;;;;;;;;;;;;10.65;95.18;99951.28;5062559;28;19950;-74
2022/12/09 05:59:06;;;;;;;;;;;;;;;10.66;95.24;99947.66;5062988;28;20137;-68
2022/12/09 06:01:31;;;;;;;;;;;;;;;10.74;94.69;99945.03;5062648;28;19980;-68
2022/12/09 06:03:57;;;;;;;;;;;;;;;10.88;93.99;99945.28;5064889;28;19917;-74
2022/12/09 06:06:25;;;;;;;;;;;;;;;10.92;93.27;99944.97;5066730;28;19951;-74
2022/12/09 06:08:53;;;;;;;;;;;;;;;10.81;94.32;99954.03;5066291;28;19980;-67
2022/12/09 06:11:19;;;;;;;;;;;;;;;10.99;92.34;99961.88;5066341;28;19925;-74
2022/12/09 06:13:45;;;;;;;;;;;;;;;10.79;94.32;99962.13;5046553;28;19984;-68
2022/12/09 06:16:10;;;;;;;;;;;;;;;10.87;93.44;99966.63;5056946;28;20202;-67
2022/12/09 06:18:36;;;;;;;;;;;;;;;10.85;94.43;99965.97;5066421;28;19916;-74
2022/12/09 06:21:05;;;;;;;;;;;;;;;10.85;94.32;99974.72;5066282;28;19980;-74
2022/12/09 06:23:30;;;;;;;;;;;;;;;10.62;95.22;99980.72;5050908;28;20004;-74
2022/12/09 06:25:55;;;;;;;;;;;;;;;10.63;95.38;99988.53;5058446;28;19955;-67
2022/12/09 06:28:21;;;;;;;;;;;;;;;10.70;95.73;99984.25;5046220;28;19972;-74
2022/12/09 06:30:46;;;;;;;;;;;;;;;10.63;95.79;99993.81;5045891;28;19940;-74
2022/12/09 06:33:11;;;;;;;;;;;;;;;10.64;95.50;99984.88;5044581;28;19925;-68
2022/12/09 06:35:37;;;;;;;;;;;;;;;10.67;95.34;99992.50;5046939;28;19932;-74
2022/12/09 06:38:02;;;;;;;;;;;;;;;10.91;93.85;99996.28;5045144;28;20181;-68
2022/12/09 06:40:27;;;;;;;;;;;;;;;10.90;93.82;99999.91;5045421;28;19917;-74
2022/12/09 06:42:53;;;;;;;;;;;;;;;11.06;93.14;99992.06;5046322;28;19917;-73
2022/12/09 06:45:18;;;;;;;;;;;;;;;10.92;93.90;99995.28;5046307;28;19917;-67
2022/12/09 06:47:44;;;;;;;;;;;;;;;11.04;92.78;99997.50;5045456;28;20150;-67
2022/12/09 06:50:09;;;;;;;;;;;;;;;11.09;93.30;99999.69;5045280;28;19956;-74
2022/12/09 06:52:36;;;;;;;;;;;;;;;10.82;94.53;99998.88;5045044;28;20213;-67
2022/12/09 06:55:01;;;;;;;;;;;;;;;10.67;95.00;99995.16;5045208;28;19921;-73
2022/12/09 06:57:26;;;;;;;;;;;;;;;10.92;94.42;99988.19;5044725;28;20092;-67
2022/12/09 06:59:52;;;;;;;;;;;;;;;10.91;93.64;99989.16;5045747;28;19927;-73
2022/12/09 07:02:17;;;;;;;;;;;;;;;10.86;94.49;99972.91;5044321;28;19917;-70
2022/12/09 07:04:42;;;;;;;;;;;;;;;11.01;94.10;100002.28;5045247;28;19921;-74
2022/12/09 07:07:09;;;;;;;;;;;;;;;11.00;94.00;99997.97;5044926;28;20199;-67
2022/12/09 07:09:34;;;;;;;;;;;;;;;11.06;92.99;100000.81;5044482;28;19921;-67
2022/12/09 07:11:59;;;;;;;;;;;;;;;11.03;94.25;100005.63;5046047;28;19939;-74
2022/12/09 07:14:25;;;;;;;;;;;;;;;11.06;94.04;99995.53;5044968;28;19921;-68
2022/12/09 07:16:50;;;;;;;;;;;;;;;11.08;94.39;100000.66;5045216;28;19917;-74
2022/12/09 07:19:17;;;;;;;;;;;;;;;11.09;94.11;99995.22;5045545;28;20091;-68
2022/12/09 07:21:42;;;;;;;;;;;;;;;11.16;93.13;99996.22;5045277;28;19917;-67
2022/12/09 07:24:09;;;;;;;;;;;;;;;11.07;93.24;99997.19;5044301;28;20158;-74
2022/12/09 07:26:34;;;;;;;;;;;;;;;10.93;94.08;99989.84;5043937;28;20218;-74
2022/12/09 07:29:03;;;;;;;;;;;;;;;11.13;94.27;100004.50;5044530;28;19944;-74
2022/12/09 07:31:29;;;;;;;;;;;;;;;11.03;94.16;100009.09;5045141;28;19963;-74
2022/12/09 07:33:55;;;;;;;;;;;;;;;11.11;93.33;100001.19;5043282;28;19929;-68
2022/12/09 07:36:21;;;;;;;;;;;;;;;11.19;92.82;99990.63;5044105;28;19917;-67
2022/12/09 07:38:46;;;;;;;;;;;;;;;11.25;92.57;99991.78;5043924;28;20103;-67
2022/12/09 07:41:16;;;;;;;;;;;;;;;11.31;91.37;99998.28;5045099;28;19917;-67
2022/12/09 07:43:42;;;;;;;;;;;;;;;11.28;91.72;100003.91;5043597;28;19928;-67
2022/12/09 07:46:08;;;;;;;;;;;;;;;11.10;92.31;99998.69;5058807;28;19988;-74
2022/12/09 07:48:33;;;;;;;;;;;;;;;11.17;92.10;100008.50;5044001;28;19959;-74
2022/12/09 07:50:59;;;;;;;;;;;;;;;11.33;91.94;99991.81;5043161;28;19917;-75
2022/12/09 07:53:24;;;;;;;;;;;;;;;11.06;93.26;99997.34;5045721;28;19921;-74
2022/12/09 07:55:50;;;;;;;;;;;;;;;11.15;93.01;100004.34;5043916;28;19987;-74
2022/12/09 07:58:15;;;;;;;;;;;;;;;11.27;92.43;100000.41;5045493;28;19921;-75
2022/12/09 08:00:40;;;;;;;;;;;;;;;11.11;92.30;100006.47;5044690;28;20114;-75
2022/12/09 08:03:05;;;;;;;;;;;;;;;11.06;93.04;100002.66;5052653;28;19920;-67
2022/12/09 08:05:31;;;;;;;;;;;;;;;11.05;92.18;99998.34;5057570;28;20628;-74
2022/12/09 08:07:56;;;;;;;;;;;;;;;10.94;92.88;99998.63;5057189;28;20134;-67
2022/12/09 08:10:21;;;;;;;;;;;;;;;10.82;94.04;100011.31;5057295;28;19921;-74
2022/12/09 08:12:46;;;;;;;;;;;;;;;10.62;95.03;100015.16;5057122;28;19924;-67
2022/12/09 08:15:12;;;;;;;;;;;;;;;10.87;94.00;100014.31;5057540;28;19932;-67
2022/12/09 08:17:37;;;;;;;;;;;;;;;10.90;94.65;100015.81;5056847;28;20234;-67
2022/12/09 08:20:02;;;;;;;;;;;;;;;11.06;94.35;100006.13;5054891;28;19955;-73
2022/12/09 08:22:28;;;;;;;;;;;;;;;11.11;93.75;100009.13;5056567;28;19963;-74
2022/12/09 08:24:53;;;;;;;;;;;;;;;11.17;93.54;100013.81;5058011;28;20019;-67
2022/12/09 08:27:18;;;;;;;;;;;;;;;11.13;93.96;100011.63;5055523;28;20198;-67
2022/12/09 08:29:43;;;;;;;;;;;;;;;11.13;92.97;100014.28;5057896;28;19924;-74
2022/12/09 08:32:09;;;;;;;;;;;;;;;11.13;93.78;100024.88;5056707;28;19960;-68
2022/12/09 08:34:34;;;;;;;;;;;;;;;11.27;93.00;100015.50;5055588;28;20137;-75
2022/12/09 08:36:59;;;;;;;;;;;;;;;11.37;92.90;100003.75;5055069;28;19924;-67
2022/12/09 08:39:24;;;;;;;;;;;;;;;11.43;92.47;100002.28;5054929;28;19921;-68
2022/12/09 08:41:50;;;;;;;;;;;;;;;11.43;92.40;99989.03;5057084;28;20114;-74
2022/12/09 08:44:16;;;;;;;;;;;;;;;11.44;92.56;99980.94;5055726;28;19933;-75
2022/12/09 08:46:51;;;;;;;;;;;;;;;11.68;90.85;99976.69;5055579;28;19932;-68
2022/12/09 08:49:18;;;;;;;;;;;;;;;11.44;90.95;99983.59;5055935;28;19921;-67
2022/12/09 08:51:44;;;;;;;;;;;;;;;10.85;94.52;99995.09;5055964;28;19920;-67
2022/12/09 08:54:09;;;;;;;;;;;;;;;10.96;95.05;99988.69;5056988;28;19929;-74
2022/12/09 08:56:35;;;;;;;;;;;;;;;10.93;95.40;99989.00;5048619;28;19921;-74
2022/12/09 08:59:00;;;;;;;;;;;;;;;10.87;94.14;99993.94;5042363;28;19992;-74
2022/12/09 09:01:35;;;;;;;;;;;;;;;11.06;94.84;99986.75;5044376;28;19917;-74
2022/12/09 09:04:02;;;;;;;;;;;;;;;11.18;94.48;99982.81;5057251;28;19992;-74
2022/12/09 09:06:27;;;;;;;;;;;;;;;11.30;93.34;99978.06;5056574;28;19916;-67
2022/12/09 09:08:54;;;;;;;;;;;;;;;11.39;93.37;99975.28;5056934;28;19943;-74
2022/12/09 09:11:19;;;;;;;;;;;;;;;10.99;94.65;99986.56;5056693;28;20015;-68
2022/12/09 09:13:46;;;;;;;;;;;;;;;10.81;94.69;99983.97;5057263;28;19929;-74
2022/12/09 09:16:15;;;;;;;;;;;;;;;10.74;95.01;99975.00;5055767;28;20142;-74
2022/12/09 09:18:41;;;;;;;;;;;;;;;10.93;94.86;99967.81;5056819;28;19921;-68
2022/12/09 09:21:07;;;;;;;;;;;;;;;11.16;93.31;99953.84;5057057;28;20023;-73
2022/12/09 09:23:32;;;;;;;;;;;;;;;11.27;92.88;99938.63;5056046;28;19943;-75
2022/12/09 09:25:58;;;;;;;;;;;;;;;11.15;93.13;99938.91;5056775;28;19917;-74
2022/12/09 09:28:23;;;;;;;;;;;;;;;11.15;93.15;99944.22;5062598;28;19927;-74
2022/12/09 09:30:49;;;;;;;;;;;;;;;11.29;92.64;99940.13;5061633;28;19920;-74
2022/12/09 09:33:15;;;;;;;;;;;;;;;11.37;90.98;99934.84;5062091;28;20221;-74
2022/12/09 09:35:40;;;;;;;;;;;;;;;11.37;91.75;99931.34;5061057;28;19959;-67
2022/12/09 09:38:05;;;;;;;;;;;;;;;11.40;92.10;99921.25;5062681;28;19929;-74
2022/12/09 09:40:31;;;;;;;;;;;;;;;11.34;91.78;99929.84;5064615;28;19923;-67
2022/12/09 09:42:57;;;;;;;;;;;;;;;11.36;92.41;99919.09;5065827;28;19933;-74
2022/12/09 09:45:22;;;;;;;;;;;;;;;11.59;91.43;99922.81;5065998;28;20231;-68
2022/12/09 09:47:59;;;;;;;;;;;;;;;11.42;91.91;99918.44;5065887;28;19928;-67
2022/12/09 09:50:34;;;;;;;;;;;;;;;11.37;93.21;99929.53;5065638;28;19917;-67
2022/12/09 09:53:01;;;;;;;;;;;;;;;11.41;93.23;99916.78;5065668;28;19991;-75
2022/12/09 09:55:37;;;;;;;;;;;;;;;11.69;90.71;99920.81;5065748;28;19998;-73
2022/12/09 09:58:03;;;;;;;;;;;;;;;11.71;90.42;99926.78;5065267;28;20003;-67
2022/12/09 10:00:28;;;;;;;;;;;;;;;11.71;90.70;99924.13;5065558;28;20202;-74
2022/12/09 10:03:01;;;;;;;;;;;;;;;11.76;89.70;99926.28;5065681;28;20134;-68
2022/12/09 10:05:28;;;;;;;;;;;;;;;11.68;90.46;99915.69;5065369;28;20106;-75
2022/12/09 10:08:06;;;;;;;;;;;;;;;11.51;90.41;99909.53;5065196;28;19924;-67
2022/12/09 10:10:31;;;;;;;;;;;;;;;11.43;90.85;99904.19;5065628;28;19970;-74
2022/12/09 10:12:59;;;;;;;;;;;;;;;11.52;90.42;99895.28;5064174;28;19933;-68
2022/12/09 10:15:29;;;;;;;;;;;;;;;11.43;90.80;99878.50;5065257;28;20216;-68
2022/12/09 10:18:03;;;;;;;;;;;;;;;11.59;91.00;99871.59;5065507;28;20236;-67
2022/12/09 10:20:30;;;;;;;;;;;;;;;11.89;89.20;99875.41;5065092;28;19917;-74
2022/12/09 10:23:00;;;;;;;;;;;;;;;11.80;89.75;99882.56;5065139;28;19948;-74
2022/12/09 10:25:27;;;;;;;;;;;;;;;11.62;90.28;99889.81;5063893;28;19913;-67
2022/12/09 10:27:58;;;;;;;;;;;;;;;11.64;90.94;99886.00;5065125;28;20174;-74
2022/12/09 10:30:23;;;;;;;;;;;;;;;11.26;91.40;99868.88;5064901;28;19924;-68
2022/12/09 10:32:48;;;;;;;;;;;;;;;11.17;92.90;99873.31;5064737;28;19951;-67
2022/12/09 10:35:15;;;;;;;;;;;;;;;11.08;93.57;99847.81;5064684;28;19985;-73
2022/12/09 10:37:41;;;;;;;;;;;;;;;10.96;94.49;99849.09;5064864;28;19917;-74
2022/12/09 10:40:06;;;;;;;;;;;;;;;10.94;95.19;99840.50;5065380;28;19978;-74
2022/12/09 10:45:41;;;;;;;;;;;;;;;11.04;94.50;99830.56;5065637;28;20026;-68
2022/12/09 10:48:17;;;;;;;;;;;;;;;10.90;94.10;99820.59;5065063;28;19959;-68
2022/12/09 10:50:42;;;;;;;;;;;;;;;10.92;94.59;99829.22;5063192;28;19916;-68
2022/12/09 10:53:13;;;;;;;;;;;;;;;10.96;94.26;99824.44;5064529;28;20001;-68
2022/12/09 10:55:39;;;;;;;;;;;;;;;11.15;93.68;99821.47;5063240;28;19923;-74
2022/12/09 10:58:18;;;;;;;;;;;;;;;11.00;94.57;99808.03;5064352;28;19921;-74
2022/12/09 11:00:58;;;;;;;;;;;;;;;10.51;97.42;99815.03;5064468;28;19974;-67
2022/12/09 11:03:25;;;;;;;;;;;;;;;10.58;98.17;99824.00;5064580;28;19920;-67
2022/12/09 11:06:17;;;;;;;;;;;;;;;10.70;96.22;99808.63;5064096;28;19995;-67
2022/12/09 11:08:48;;;;;;;;;;;;;;;10.92;96.98;99802.72;5062896;28;19924;-67
2022/12/09 11:11:14;;;;;;;;;;;;;;;11.11;95.10;99793.66;5064358;28;19916;-74
2022/12/09 11:13:41;;;;;;;;;;;;;;;11.10;95.56;99790.16;5063818;28;20076;-74
2022/12/09 11:16:07;;;;;;;;;;;;;;;10.76;96.48;99792.94;5063048;28;19916;-71
2022/12/09 11:18:50;;;;;;;;;;;;;;;10.66;98.57;99776.34;5064464;28;19920;-69
2022/12/09 11:21:29;;;;;;;;;;;;;;;10.64;97.92;99783.63;5063790;28;19993;-67
2022/12/09 11:23:55;;;;;;;;;;;;;;;10.60;98.03;99784.94;5064288;28;19967;-74
2022/12/09 11:26:22;;;;;;;;;;;;;;;10.85;97.49;99805.19;5064036;28;20137;-75
2022/12/09 11:28:57;;;;;;;;;;;;;;;10.82;97.17;99804.69;5064086;28;19917;-68
2022/12/09 11:31:23;;;;;;;;;;;;;;;10.65;97.77;99798.53;5063490;28;19916;-74
2022/12/09 11:33:57;;;;;;;;;;;;;;;10.35;98.72;99793.75;5064312;28;20247;-73
2022/12/09 11:36:22;;;;;;;;;;;;;;;10.40;99.40;99797.63;5064468;28;19917;-74
2022/12/09 11:38:48;;;;;;;;;;;;;;;10.36;99.05;99793.59;5064705;28;20010;-74
2022/12/09 11:44:14;;;;;;;;;;;;;;;9.93;100.00;99779.47;5063618;28;19927;-67
2022/12/09 11:46:39;;;;;;;;;;;;;;;10.23;100.00;99772.88;5063471;28;19955;-74
2022/12/09 11:49:11;;;;;;;;;;;;;;;10.29;100.00;99775.88;5063302;28;20172;-74
2022/12/09 11:51:38;;;;;;;;;;;;;;;10.34;99.72;99777.06;5063357;28;19916;-74
2022/12/09 11:54:35;;;;;;;;;;;;;;;10.31;100.00;99765.94;5063649;28;19928;-74
2022/12/09 11:57:02;;;;;;;;;;;;;;;10.41;100.00;99769.31;5052339;28;19913;-73
2022/12/09 11:59:36;;;;;;;;;;;;;;;10.42;98.95;99765.69;5064648;28;19984;-74
2022/12/09 12:02:04;;;;;;;;;;;;;;;10.62;98.71;99766.25;5064207;28;19917;-68
2022/12/09 12:04:30;;;;;;;;;;;;;;;10.73;98.39;99764.13;5063410;28;19921;-67
2022/12/09 12:07:01;;;;;;;;;;;;;;;10.96;97.10;99766.97;5063082;28;19917;-75
2022/12/09 12:09:30;;;;;;;;;;;;;;;11.12;96.10;99766.16;5062815;28;19928;-72
2022/12/09 12:12:01;;;;;;;;;;;;;;;11.22;95.59;99766.81;5063089;28;19921;-75
2022/12/09 12:14:28;;;;;;;;;;;;;;;11.39;95.09;99760.53;5063259;28;19920;-74
2022/12/09 12:17:12;;;;;;;;;;;;;;;11.43;94.52;99764.50;5063197;28;19917;-74
2022/12/09 12:19:38;;;;;;;;;;;;;;;11.03;95.45;99751.25;5063172;28;19929;-67
2022/12/09 12:22:19;;;;;;;;;;;;;;;10.72;97.86;99735.16;5062921;28;19925;-73
2022/12/09 12:24:51;;;;;;;;;;;;;;;10.59;98.52;99745.38;5063201;28;19921;-67
2022/12/09 12:27:26;;;;;;;;;;;;;;;10.59;99.43;99743.56;5061664;28;20281;-68
2022/12/09 12:29:51;;;;;;;;;;;;;;;10.58;99.11;99755.16;5062950;28;19927;-74
2022/12/09 12:32:16;;;;;;;;;;;;;;;10.67;99.03;99753.34;5063124;28;19916;-74
2022/12/09 12:34:41;;;;;;;;;;;;;;;10.68;98.97;99757.66;5062875;28;19963;-74
2022/12/09 12:37:07;;;;;;;;;;;;;;;10.90;97.34;99754.38;5061397;28;20286;-74
2022/12/09 12:39:32;;;;;;;;;;;;;;;11.02;96.44;99755.72;5062705;28;19928;-67
2022/12/09 12:42:09;;;;;;;;;;;;;;;11.11;96.27;99745.94;5062430;28;20177;-74
2022/12/09 12:47:28;;;;;;;;;;;;;;;11.08;95.28;99735.69;5062882;28;20244;-74
2022/12/09 12:49:53;;;;;;;;;;;;;;;10.98;96.37;99737.66;5061013;28;19920;-74
2022/12/09 12:52:22;;;;;;;;;;;;;;;10.91;97.08;99745.44;5061263;28;19969;-74
2022/12/09 12:54:53;;;;;;;;;;;;;;;10.86;97.36;99753.06;5062660;28;19983;-73